Time;durP1;ratioP1;P1;durP2;ratioP2;P2;SDS_P1;SDS_P2;PMS_P1;PMS_P2;Temp;Humidity;BMP_temperature;BMP_pressure;BME280_temperature;BME280_humidity;BME280_pressure;Samples;Min_cycle;Max_cycle;Signal;HPM_P1;HPM_P2
2023/04/16 00:00:19;;;;;;;0.20;0.20;;;8.80;99.90;;;;;;5013583;28;20049;-87
2023/04/16 00:02:44;;;;;;;0.65;0.65;;;8.80;99.90;;;;;;4997293;28;20046;-87
2023/04/16 00:05:10;;;;;;;0.20;0.20;;;8.80;99.90;;;;;;4996499;28;20393;-87
2023/04/16 00:07:36;;;;;;;0.75;0.65;;;8.80;99.90;;;;;;4980416;28;20057;-87
2023/04/16 00:10:02;;;;;;;0.30;0.30;;;8.80;99.90;;;;;;4981146;28;20474;-87
2023/04/16 00:12:27;;;;;;;2.28;0.77;;;8.80;99.90;;;;;;4996450;28;20116;-87
2023/04/16 00:14:53;;;;;;;4.68;0.60;;;8.80;99.90;;;;;;5012660;28;20091;-87
2023/04/16 00:17:19;;;;;;;0.52;0.45;;;8.90;99.90;;;;;;4980241;28;20140;-86
2023/04/16 00:19:44;;;;;;;1.27;0.80;;;8.80;99.90;;;;;;4997196;28;20072;-86
2023/04/16 00:22:10;;;;;;;1.17;0.82;;;8.80;99.90;;;;;;4980296;28;20389;-87
2023/04/16 00:24:36;;;;;;;0.85;0.85;;;8.80;99.90;;;;;;4980166;28;20065;-86
2023/04/16 00:27:01;;;;;;;3.83;1.33;;;8.80;99.90;;;;;;4996318;28;20052;-86
2023/04/16 00:29:29;;;;;;;10.50;1.08;;;8.80;99.90;;;;;;4980091;28;20613;-86
2023/04/16 00:31:55;;;;;;;2.30;0.38;;;8.80;99.90;;;;;;4997095;28;20061;-86
2023/04/16 00:34:23;;;;;;;5.35;0.90;;;8.80;99.90;;;;;;4997108;28;20050;-87
2023/04/16 00:36:49;;;;;;;0.50;0.30;;;8.80;99.90;;;;;;4995865;28;20062;-86
2023/04/16 00:39:17;;;;;;;0.63;0.63;;;8.80;99.90;;;;;;4982022;28;20107;-86
2023/04/16 00:41:43;;;;;;;1.13;0.95;;;8.80;99.90;;;;;;5001107;28;20045;-86
2023/04/16 00:44:09;;;;;;;2.55;2.05;;;8.80;99.90;;;;;;5000248;28;20038;-86
2023/04/16 00:46:36;;;;;;;2.65;0.93;;;8.80;99.90;;;;;;4999761;28;20532;-86
2023/04/16 00:49:02;;;;;;;1.60;0.55;;;8.80;99.90;;;;;;5016387;28;20050;-86
2023/04/16 00:51:29;;;;;;;2.72;0.70;;;8.80;99.90;;;;;;5016165;28;20046;-86
2023/04/16 00:53:56;;;;;;;4.88;1.02;;;8.80;99.90;;;;;;5000580;28;20046;-86
2023/04/16 00:56:23;;;;;;;4.40;1.13;;;8.80;99.90;;;;;;4999430;28;20445;-87
2023/04/16 00:58:49;;;;;;;2.60;1.65;;;8.80;99.90;;;;;;4983036;28;20115;-87
2023/04/16 01:01:15;;;;;;;1.20;1.10;;;8.80;99.90;;;;;;5000348;28;20137;-87
2023/04/16 01:03:46;;;;;;;0.80;0.45;;;8.90;99.90;;;;;;4999643;28;20042;-85
2023/04/16 01:06:12;;;;;;;0.10;0.10;;;8.80;99.90;;;;;;4983309;28;20042;-85
2023/04/16 01:08:38;;;;;;;1.27;0.82;;;8.90;99.90;;;;;;4983888;28;20046;-86
2023/04/16 01:11:04;;;;;;;2.72;1.25;;;8.90;99.90;;;;;;4999435;28;20057;-86
2023/04/16 01:13:30;;;;;;;0.40;0.32;;;8.90;99.90;;;;;;4983543;28;20049;-85
2023/04/16 01:15:56;;;;;;;3.30;0.93;;;8.80;99.90;;;;;;5015806;28;20053;-86
2023/04/16 01:18:22;;;;;;;3.70;1.48;;;8.90;99.90;;;;;;5016362;28;20378;-85
2023/04/16 01:20:50;;;;;;;1.05;0.70;;;8.90;99.90;;;;;;4999510;28;20099;-85
2023/04/16 01:23:18;;;;;;;1.38;1.27;;;8.80;99.90;;;;;;4999511;28;20046;-86
2023/04/16 01:25:45;;;;;;;1.20;0.35;;;8.80;99.90;;;;;;5015473;28;20555;-86
2023/04/16 01:28:11;;;;;;;1.30;1.20;;;8.80;99.90;;;;;;5016248;28;20064;-85
2023/04/16 01:30:37;;;;;;;0.00;0.00;;;8.80;99.90;;;;;;4982939;28;20493;-85
2023/04/16 01:33:03;;;;;;;0.20;0.20;;;8.80;99.90;;;;;;4999099;28;20049;-86
2023/04/16 01:35:28;;;;;;;0.60;0.60;;;8.80;99.90;;;;;;4982373;28;20523;-85
2023/04/16 01:37:54;;;;;;;1.98;1.00;;;8.80;99.90;;;;;;4999827;28;20477;-85
2023/04/16 01:40:20;;;;;;;0.28;0.25;;;8.80;99.90;;;;;;4982666;28;20042;-85
2023/04/16 01:42:46;;;;;;;1.63;0.75;;;8.80;99.90;;;;;;4983433;28;20052;-86
2023/04/16 01:45:12;;;;;;;0.03;0.03;;;8.80;99.90;;;;;;4998833;28;20089;-85
2023/04/16 01:47:37;;;;;;;0.43;0.28;;;8.80;99.90;;;;;;5015396;28;20046;-85
2023/04/16 01:50:04;;;;;;;1.73;0.47;;;8.80;99.90;;;;;;4998954;28;20057;-85
2023/04/16 01:52:30;;;;;;;4.10;1.77;;;8.80;99.90;;;;;;4998840;28;20133;-85
2023/04/16 01:54:56;;;;;;;0.00;0.00;;;8.80;99.90;;;;;;5014953;28;20045;-85
2023/04/16 01:57:22;;;;;;;0.43;0.43;;;8.80;99.90;;;;;;4998285;28;20054;-86
2023/04/16 01:59:48;;;;;;;1.13;1.13;;;8.80;99.90;;;;;;4982469;28;20052;-85
2023/04/16 02:02:15;;;;;;;9.52;1.00;;;8.80;99.90;;;;;;4998622;28;20093;-86
2023/04/16 02:04:43;;;;;;;3.05;1.13;;;8.80;99.90;;;;;;4998425;28;20050;-85
2023/04/16 02:07:09;;;;;;;1.27;1.00;;;8.80;99.90;;;;;;5014723;28;20053;-85
2023/04/16 02:09:36;;;;;;;1.02;0.98;;;8.80;99.90;;;;;;4998582;28;20046;-86
2023/04/16 02:12:03;;;;;;;0.90;0.73;;;8.80;99.90;;;;;;5014159;28;20478;-86
2023/04/16 02:14:29;;;;;;;0.30;0.30;;;8.80;99.90;;;;;;4997923;28;20556;-85
2023/04/16 02:16:55;;;;;;;2.65;0.70;;;8.80;99.90;;;;;;5014446;28;20081;-85
2023/04/16 02:19:21;;;;;;;0.20;0.20;;;8.80;99.90;;;;;;5014470;28;20442;-85
2023/04/16 02:21:47;;;;;;;0.55;0.45;;;8.80;99.90;;;;;;4998077;28;20088;-86
2023/04/16 02:24:14;;;;;;;1.05;0.65;;;8.50;99.90;;;;;;5014188;28;20138;-86
2023/04/16 02:26:40;;;;;;;4.43;0.95;;;8.70;99.90;;;;;;4998847;28;20042;-86
2023/04/16 02:29:05;;;;;;;0.20;0.20;;;8.70;99.90;;;;;;5014253;28;20124;-86
2023/04/16 02:31:31;;;;;;;10.38;0.65;;;8.70;99.90;;;;;;4998639;28;20092;-85
2023/04/16 02:33:57;;;;;;;1.25;1.02;;;8.70;99.90;;;;;;4981683;28;20077;-85
2023/04/16 02:36:23;;;;;;;0.03;0.03;;;8.70;99.90;;;;;;4997633;28;20119;-85
2023/04/16 02:38:49;;;;;;;1.08;0.60;;;8.70;99.90;;;;;;4998418;28;20390;-85
2023/04/16 02:41:14;;;;;;;2.03;0.73;;;8.70;99.90;;;;;;5013990;28;20057;-86
2023/04/16 02:43:40;;;;;;;0.75;0.28;;;8.70;99.90;;;;;;4997650;28;20053;-85
2023/04/16 02:46:06;;;;;;;1.30;1.02;;;8.60;99.90;;;;;;4997625;28;20049;-86
2023/04/16 02:48:32;;;;;;;1.92;0.68;;;8.60;99.90;;;;;;4998408;28;20057;-85
2023/04/16 02:50:57;;;;;;;1.08;0.32;;;8.60;99.90;;;;;;5014066;28;20057;-85
2023/04/16 02:53:23;;;;;;;0.70;0.68;;;8.60;99.90;;;;;;5013541;28;20393;-86
2023/04/16 02:55:54;;;;;;;0.75;0.75;;;8.60;99.90;;;;;;4997321;28;20053;-85
2023/04/16 02:58:24;;;;;;;0.75;0.25;;;8.60;99.90;;;;;;5014705;28;20109;-85
2023/04/16 03:00:50;;;;;;;0.90;0.90;;;8.60;99.90;;;;;;4980974;28;20073;-85
2023/04/16 03:03:16;;;;;;;0.55;0.40;;;8.50;99.90;;;;;;5013436;28;20108;-85
2023/04/16 03:05:43;;;;;;;1.13;0.57;;;8.60;99.90;;;;;;4997606;28;20127;-86
2023/04/16 03:08:09;;;;;;;0.43;0.43;;;8.60;99.90;;;;;;4998097;28;20050;-86
2023/04/16 03:10:35;;;;;;;1.35;1.25;;;8.60;99.90;;;;;;4997441;28;20038;-85
2023/04/16 03:13:02;;;;;;;2.30;0.98;;;8.60;99.90;;;;;;5013689;28;20046;-86
2023/04/16 03:15:29;;;;;;;0.65;0.65;;;8.60;99.90;;;;;;4997300;28;20529;-85
2023/04/16 03:17:55;;;;;;;0.10;0.10;;;8.60;99.90;;;;;;4997468;28;20042;-86
2023/04/16 03:20:21;;;;;;;0.52;0.52;;;8.50;99.90;;;;;;4997330;28;20085;-85
2023/04/16 03:22:46;;;;;;;1.30;1.23;;;8.50;99.90;;;;;;4997392;28;20103;-85
2023/04/16 03:25:13;;;;;;;2.42;0.63;;;8.50;99.90;;;;;;4980669;28;20049;-85
2023/04/16 03:27:39;;;;;;;0.20;0.20;;;8.50;99.90;;;;;;4997738;28;20103;-86
2023/04/16 03:30:10;;;;;;;0.32;0.32;;;8.50;99.90;;;;;;4980723;28;20512;-86
2023/04/16 03:32:36;;;;;;;4.70;0.68;;;8.50;99.90;;;;;;4996810;28;20053;-86
2023/04/16 03:35:03;;;;;;;1.08;0.85;;;8.50;99.90;;;;;;4997647;28;20132;-86
2023/04/16 03:37:29;;;;;;;0.77;0.77;;;8.50;99.90;;;;;;4996212;28;20053;-86
2023/04/16 03:39:55;;;;;;;0.20;0.20;;;8.50;99.90;;;;;;4980966;28;20052;-85
2023/04/16 03:42:21;;;;;;;0.25;0.25;;;8.40;99.90;;;;;;4996964;28;20049;-85
2023/04/16 03:44:46;;;;;;;3.13;1.15;;;8.40;99.90;;;;;;4996748;28;20041;-85
2023/04/16 03:47:12;;;;;;;0.50;0.50;;;8.40;99.90;;;;;;4980498;28;20050;-85
2023/04/16 03:49:38;;;;;;;1.00;0.57;;;8.40;99.90;;;;;;4996656;28;20061;-85
2023/04/16 03:52:03;;;;;;;3.72;1.10;;;8.40;99.90;;;;;;4996572;28;20056;-85
2023/04/16 03:54:29;;;;;;;3.95;0.93;;;8.40;99.90;;;;;;4996500;28;20049;-85
2023/04/16 03:56:55;;;;;;;1.02;0.65;;;8.40;99.90;;;;;;5013527;28;20374;-85
2023/04/16 03:59:21;;;;;;;0.25;0.13;;;8.40;99.90;;;;;;5012981;28;20046;-86
2023/04/16 04:01:47;;;;;;;0.38;0.38;;;8.40;99.90;;;;;;4996597;28;20052;-85
2023/04/16 04:04:13;;;;;;;0.22;0.22;;;8.40;99.90;;;;;;4980408;28;20141;-85
2023/04/16 04:06:39;;;;;;;2.08;0.35;;;8.40;99.90;;;;;;4996482;28;20046;-85
2023/04/16 04:09:06;;;;;;;0.30;0.28;;;8.40;99.90;;;;;;4996369;28;20196;-85
2023/04/16 04:11:32;;;;;;;0.03;0.03;;;8.40;99.90;;;;;;4996447;28;20050;-85
2023/04/16 04:13:57;;;;;;;0.82;0.10;;;8.40;99.90;;;;;;5014292;28;20050;-85
2023/04/16 04:16:23;;;;;;;2.15;0.50;;;8.40;99.90;;;;;;5000519;28;20052;-85
2023/04/16 04:18:49;;;;;;;0.63;0.63;;;8.40;99.90;;;;;;5001112;28;20119;-85
2023/04/16 04:21:15;;;;;;;0.10;0.10;;;8.40;99.90;;;;;;5000283;28;20057;-85
2023/04/16 04:23:41;;;;;;;0.40;0.40;;;8.40;99.90;;;;;;5000932;28;20053;-86
2023/04/16 04:26:07;;;;;;;1.15;0.90;;;8.50;99.90;;;;;;5016670;28;20050;-85
2023/04/16 04:28:34;;;;;;;0.47;0.38;;;8.40;99.90;;;;;;5000190;28;20100;-85
2023/04/16 04:31:00;;;;;;;1.20;0.32;;;8.40;99.90;;;;;;4984020;28;20115;-85
2023/04/16 04:33:26;;;;;;;0.17;0.03;;;8.40;99.90;;;;;;5000124;28;20062;-84
2023/04/16 04:35:53;;;;;;;0.10;0.10;;;8.40;99.90;;;;;;4983185;28;20108;-84
2023/04/16 04:38:23;;;;;;;3.00;1.23;;;8.60;99.90;;;;;;4999552;28;20076;-85
2023/04/16 04:40:50;;;;;;;0.17;0.17;;;8.40;99.90;;;;;;4998609;28;20123;-86
2023/04/16 04:43:16;;;;;;;0.50;0.30;;;8.40;99.90;;;;;;5014956;28;20100;-84
2023/04/16 04:45:41;;;;;;;0.30;0.25;;;8.30;99.90;;;;;;4999417;28;20413;-86
2023/04/16 04:48:07;;;;;;;0.55;0.55;;;8.40;99.90;;;;;;4982598;28;20563;-85
2023/04/16 04:50:33;;;;;;;0.85;0.82;;;8.40;99.90;;;;;;4982311;28;20050;-84
2023/04/16 04:52:59;;;;;;;4.13;0.80;;;8.40;99.90;;;;;;4998679;28;20183;-85
2023/04/16 04:55:25;;;;;;;0.75;0.43;;;8.40;99.90;;;;;;4998316;28;20115;-84
2023/04/16 04:57:50;;;;;;;0.98;0.85;;;8.40;99.90;;;;;;4982566;28;20056;-84
2023/04/16 05:00:16;;;;;;;1.10;0.40;;;8.70;99.90;;;;;;4982097;28;20490;-85
2023/04/16 05:02:42;;;;;;;0.17;0.15;;;8.40;99.90;;;;;;4982410;28;20046;-85
2023/04/16 05:05:08;;;;;;;2.15;1.02;;;8.40;99.90;;;;;;4982024;28;20049;-85
2023/04/16 05:07:33;;;;;;;2.63;1.10;;;8.40;99.90;;;;;;4982003;28;20054;-84
2023/04/16 05:09:59;;;;;;;0.45;0.35;;;8.40;99.90;;;;;;4998934;28;20473;-85
2023/04/16 05:12:25;;;;;;;0.65;0.65;;;8.40;99.90;;;;;;4998206;28;20128;-85
2023/04/16 05:14:51;;;;;;;0.80;0.73;;;8.40;99.90;;;;;;4998035;28;20060;-85
2023/04/16 05:17:17;;;;;;;0.17;0.17;;;8.40;99.90;;;;;;4997854;28;20038;-85
2023/04/16 05:19:42;;;;;;;0.30;0.08;;;8.40;99.90;;;;;;4998074;28;20457;-85
2023/04/16 05:22:08;;;;;;;1.25;0.43;;;8.40;99.90;;;;;;4998086;28;20418;-84
2023/04/16 05:24:34;;;;;;;0.00;0.00;;;8.50;99.90;;;;;;4981633;28;20056;-84
2023/04/16 05:27:00;;;;;;;1.10;0.32;;;8.50;99.90;;;;;;4998149;28;20071;-85
2023/04/16 05:29:26;;;;;;;0.13;0.13;;;8.50;99.90;;;;;;5014519;28;20046;-85
2023/04/16 05:31:51;;;;;;;0.43;0.43;;;8.50;99.90;;;;;;4981458;28;20050;-85
2023/04/16 05:34:17;;;;;;;2.65;1.13;;;8.50;99.90;;;;;;5014950;28;20128;-85
2023/04/16 05:38:03;;;;;;;0.45;0.45;;;8.60;99.90;;;;;;5090890;27;20896;-85
2023/04/16 05:40:29;;;;;;;0.30;0.30;;;8.60;99.90;;;;;;5072924;28;20044;-85
2023/04/16 05:42:55;;;;;;;0.10;0.10;;;8.60;99.90;;;;;;5073094;28;20146;-84
2023/04/16 05:45:21;;;;;;;0.60;0.50;;;8.70;99.90;;;;;;5073106;28;20060;-85
2023/04/16 05:47:47;;;;;;;0.80;0.47;;;8.70;99.90;;;;;;5073088;28;20040;-85
2023/04/16 05:50:12;;;;;;;1.17;0.90;;;8.70;99.90;;;;;;5072817;28;20044;-85
2023/04/16 05:52:38;;;;;;;0.35;0.35;;;8.70;99.90;;;;;;5073004;28;20048;-85
2023/04/16 05:55:05;;;;;;;6.18;0.85;;;8.80;99.90;;;;;;5089855;28;20044;-84
2023/04/16 05:57:31;;;;;;;0.85;0.65;;;8.80;99.90;;;;;;5072512;28;20392;-86
2023/04/16 05:59:57;;;;;;;3.20;1.15;;;8.80;99.90;;;;;;5072210;28;20054;-85
2023/04/16 06:02:26;;;;;;;0.50;0.30;;;8.80;99.90;;;;;;5055974;28;20044;-85
2023/04/16 06:04:52;;;;;;;0.13;0.13;;;8.80;99.90;;;;;;5089974;28;20426;-85
2023/04/16 06:07:18;;;;;;;0.15;0.15;;;8.70;99.90;;;;;;5072796;28;20040;-85
2023/04/16 06:09:46;;;;;;;1.08;0.98;;;8.70;99.90;;;;;;5055985;28;20048;-85
2023/04/16 06:12:12;;;;;;;4.00;0.75;;;8.80;99.90;;;;;;5089514;28;20123;-85
2023/04/16 06:14:37;;;;;;;1.75;0.30;;;8.70;99.90;;;;;;5072608;28;20181;-85
2023/04/16 06:17:03;;;;;;;3.33;0.90;;;8.80;99.90;;;;;;5072413;28;20502;-85
2023/04/16 06:19:31;;;;;;;0.52;0.52;;;8.80;99.90;;;;;;5072475;28;20052;-85
2023/04/16 06:21:57;;;;;;;0.55;0.32;;;8.80;99.90;;;;;;5072371;28;20050;-85
2023/04/16 06:24:23;;;;;;;0.05;0.05;;;8.90;99.90;;;;;;5089293;28;20040;-85
2023/04/16 06:26:48;;;;;;;0.30;0.10;;;8.90;99.90;;;;;;5072625;28;20408;-86
2023/04/16 06:29:16;;;;;;;0.15;0.15;;;9.00;99.90;;;;;;5072246;28;20048;-85
2023/04/16 06:31:42;;;;;;;0.22;0.22;;;9.00;99.90;;;;;;5071544;28;20048;-85
2023/04/16 06:34:08;;;;;;;1.48;1.10;;;9.10;99.90;;;;;;5072240;28;20051;-85
2023/04/16 06:36:36;;;;;;;0.82;0.50;;;9.10;99.90;;;;;;5071825;28;20056;-85
2023/04/16 06:39:02;;;;;;;7.57;0.73;;;9.20;99.90;;;;;;5071841;28;20044;-86
2023/04/16 06:41:27;;;;;;;2.53;0.63;;;9.20;99.90;;;;;;5072290;28;20139;-86
2023/04/16 06:43:53;;;;;;;1.30;0.70;;;9.20;99.90;;;;;;5072376;28;20043;-86
2023/04/16 06:46:19;;;;;;;0.30;0.30;;;9.20;99.90;;;;;;5055426;28;20396;-86
2023/04/16 06:48:45;;;;;;;3.03;0.43;;;9.30;99.90;;;;;;5062220;28;20393;-87
2023/04/16 06:51:11;;;;;;;1.08;1.02;;;9.30;99.90;;;;;;5058401;28;20036;-86
2023/04/16 06:53:37;;;;;;;1.70;1.38;;;9.40;99.90;;;;;;5041944;28;20044;-87
2023/04/16 06:56:03;;;;;;;1.17;0.95;;;9.40;99.90;;;;;;5058502;28;20044;-87
2023/04/16 06:58:31;;;;;;;0.20;0.20;;;9.50;99.90;;;;;;5041977;28;20041;-84
2023/04/16 07:00:58;;;;;;;0.85;0.85;;;9.60;99.90;;;;;;5057898;28;20044;-87
2023/04/16 07:03:23;;;;;;;0.88;0.88;;;9.60;99.90;;;;;;5058336;28;20048;-86
2023/04/16 07:05:49;;;;;;;1.58;0.90;;;9.60;99.90;;;;;;5058290;28;20041;-87
2023/04/16 07:08:15;;;;;;;0.35;0.35;;;9.70;99.90;;;;;;5058032;28;20047;-86
2023/04/16 07:10:41;;;;;;;0.63;0.45;;;9.70;99.90;;;;;;5058371;28;20541;-87
2023/04/16 07:13:07;;;;;;;0.52;0.52;;;9.80;99.90;;;;;;5058185;28;20059;-87
2023/04/16 07:15:33;;;;;;;2.17;0.65;;;9.80;99.90;;;;;;5075123;28;20048;-86
2023/04/16 07:17:59;;;;;;;5.40;0.30;;;9.90;99.90;;;;;;5058280;28;20044;-86
2023/04/16 07:20:24;;;;;;;1.00;0.70;;;9.90;99.90;;;;;;5058147;28;20457;-87
2023/04/16 07:22:50;;;;;;;10.68;1.63;;;9.90;99.90;;;;;;5057998;28;20051;-87
2023/04/16 07:25:16;;;;;;;0.35;0.30;;;10.00;99.90;;;;;;5057995;28;20059;-86
2023/04/16 07:27:42;;;;;;;0.10;0.10;;;10.00;99.90;;;;;;5058165;28;20040;-87
2023/04/16 07:30:10;;;;;;;1.75;0.80;;;10.10;99.90;;;;;;5056978;28;20048;-84
2023/04/16 07:32:36;;;;;;;3.00;0.40;;;10.10;99.90;;;;;;5041133;28;20059;-84
2023/04/16 07:35:02;;;;;;;3.92;0.82;;;10.10;99.90;;;;;;5041184;28;20044;-84
2023/04/16 07:37:28;;;;;;;0.80;0.80;;;10.10;99.90;;;;;;5056978;28;20048;-84
2023/04/16 07:39:56;;;;;;;0.57;0.57;;;10.10;99.90;;;;;;5057646;28;20511;-84
2023/04/16 07:42:22;;;;;;;0.10;0.10;;;10.20;99.90;;;;;;5041287;28;20059;-85
2023/04/16 07:44:48;;;;;;;0.70;0.70;;;10.20;99.90;;;;;;5074288;28;20052;-84
2023/04/16 07:47:13;;;;;;;1.23;0.95;;;10.20;99.90;;;;;;5057475;28;20078;-85
2023/04/16 07:49:39;;;;;;;0.57;0.50;;;10.20;99.90;;;;;;5057463;28;20555;-84
2023/04/16 07:52:05;;;;;;;1.00;1.00;;;10.20;99.90;;;;;;5057060;28;20049;-84
2023/04/16 07:54:31;;;;;;;0.57;0.45;;;10.20;99.90;;;;;;5057089;28;20056;-84
2023/04/16 07:56:57;;;;;;;0.60;0.32;;;10.20;99.90;;;;;;5073725;28;20080;-84
2023/04/16 07:59:22;;;;;;;0.20;0.20;;;10.20;99.90;;;;;;5056700;28;20135;-84
2023/04/16 08:01:49;;;;;;;0.40;0.10;;;10.20;99.90;;;;;;5039779;28;20496;-85
2023/04/16 08:04:18;;;;;;;0.25;0.22;;;10.30;99.90;;;;;;5057169;28;20044;-85
2023/04/16 08:06:47;;;;;;;2.03;1.10;;;10.30;99.90;;;;;;5056534;28;20044;-85
2023/04/16 08:09:12;;;;;;;0.40;0.40;;;10.30;99.90;;;;;;5040534;28;20045;-85
2023/04/16 08:11:41;;;;;;;0.60;0.43;;;10.30;99.90;;;;;;5040365;28;20113;-85
2023/04/16 08:14:10;;;;;;;0.10;0.10;;;10.30;99.90;;;;;;5041849;28;20393;-85
2023/04/16 08:16:37;;;;;;;0.63;0.55;;;10.40;99.90;;;;;;5056593;28;20040;-85
2023/04/16 08:19:03;;;;;;;0.57;0.57;;;10.40;99.90;;;;;;5056886;28;20045;-85
2023/04/16 08:21:30;;;;;;;2.10;0.85;;;10.40;99.90;;;;;;5073470;28;20365;-85
2023/04/16 08:23:56;;;;;;;0.73;0.55;;;10.50;99.90;;;;;;5056821;28;20066;-86
2023/04/16 08:26:22;;;;;;;0.20;0.10;;;10.70;99.90;;;;;;5055605;28;20056;-84
2023/04/16 08:28:50;;;;;;;0.00;0.00;;;10.70;99.90;;;;;;5056503;28;20076;-86
2023/04/16 08:31:19;;;;;;;0.75;0.65;;;10.70;99.90;;;;;;5053599;28;20450;-87
2023/04/16 08:33:45;;;;;;;0.55;0.28;;;10.80;99.90;;;;;;5072203;28;20124;-84
2023/04/16 08:36:10;;;;;;;1.27;0.75;;;10.90;99.90;;;;;;5038737;28;20135;-84
2023/04/16 08:38:36;;;;;;;1.83;1.73;;;11.00;99.90;;;;;;5056094;28;20052;-84
2023/04/16 08:41:05;;;;;;;1.60;1.20;;;11.00;99.90;;;;;;5056036;28;20484;-86
2023/04/16 08:43:46;;;;;;;1.95;0.82;;;11.10;99.90;;;;;;5072763;28;20052;-85
2023/04/16 08:46:12;;;;;;;1.23;1.13;;;11.20;99.90;;;;;;5056523;28;20055;-84
2023/04/16 08:48:40;;;;;;;1.63;0.77;;;11.30;99.90;;;;;;5071946;28;20452;-84
2023/04/16 08:51:10;;;;;;;1.55;0.57;;;11.40;99.90;;;;;;5056026;28;20427;-84
2023/04/16 08:53:48;;;;;;;0.57;0.45;;;11.50;99.90;;;;;;5056333;28;20058;-84
2023/04/16 08:56:16;;;;;;;0.10;0.10;;;11.70;99.90;;;;;;5039636;28;20041;-84
2023/04/16 08:58:42;;;;;;;4.18;1.27;;;11.80;99.90;;;;;;5039665;28;20052;-85
2023/04/16 09:01:10;;;;;;;0.75;0.75;;;11.90;99.90;;;;;;5039083;28;20048;-84
2023/04/16 09:03:40;;;;;;;0.38;0.38;;;12.10;99.90;;;;;;5056675;28;20488;-84
2023/04/16 09:06:07;;;;;;;1.90;1.00;;;12.20;98.90;;;;;;5055864;28;20472;-84
2023/04/16 09:08:34;;;;;;;3.20;1.20;;;12.30;99.70;;;;;;5056037;28;20093;-85
2023/04/16 09:11:00;;;;;;;0.22;0.22;;;12.40;98.60;;;;;;5039013;28;20048;-84
2023/04/16 09:13:27;;;;;;;1.08;0.50;;;12.40;98.60;;;;;;5039065;28;20097;-85
2023/04/16 09:15:53;;;;;;;0.13;0.13;;;12.60;98.50;;;;;;5055401;28;20053;-84
2023/04/16 09:18:20;;;;;;;0.15;0.10;;;12.80;98.80;;;;;;5055904;28;20056;-87
2023/04/16 09:20:47;;;;;;;0.10;0.10;;;12.80;97.80;;;;;;5055625;28;20048;-85
2023/04/16 09:23:13;;;;;;;0.30;0.25;;;13.00;96.90;;;;;;5055660;28;20135;-85
2023/04/16 09:25:39;;;;;;;1.58;0.63;;;13.10;96.90;;;;;;5039198;28;20135;-85
2023/04/16 09:28:05;;;;;;;0.40;0.30;;;13.30;96.40;;;;;;5055364;28;20131;-84
2023/04/16 09:30:32;;;;;;;0.25;0.25;;;13.50;95.70;;;;;;5038978;28;20048;-84
2023/04/16 09:33:14;;;;;;;1.15;0.35;;;13.70;95.20;;;;;;5055778;28;20485;-84
2023/04/16 09:35:47;;;;;;;0.85;0.85;;;13.90;94.90;;;;;;5072377;28;20081;-84
2023/04/16 09:38:13;;;;;;;2.13;1.10;;;14.00;92.90;;;;;;5054926;28;20140;-85
2023/04/16 09:40:39;;;;;;;0.93;0.90;;;14.10;91.20;;;;;;5072061;28;20051;-84
2023/04/16 09:43:14;;;;;;;4.28;0.68;;;14.30;93.80;;;;;;5055280;28;20048;-85
2023/04/16 09:45:54;;;;;;;0.20;0.20;;;14.40;92.00;;;;;;5055585;28;20083;-84
2023/04/16 09:48:30;;;;;;;1.17;0.80;;;14.60;92.70;;;;;;5055343;28;20049;-84
2023/04/16 09:50:59;;;;;;;0.30;0.30;;;14.50;91.10;;;;;;5055514;28;20389;-85
2023/04/16 09:53:29;;;;;;;0.75;0.45;;;14.50;88.00;;;;;;5055877;28;20049;-84
2023/04/16 09:56:00;;;;;;;0.50;0.50;;;14.40;90.30;;;;;;5055240;28;20052;-85
2023/04/16 09:58:28;;;;;;;0.85;0.85;;;14.40;91.40;;;;;;5038862;28;20155;-84
2023/04/16 10:01:05;;;;;;;0.55;0.32;;;14.40;91.90;;;;;;5055024;28;20052;-84
2023/04/16 10:03:36;;;;;;;3.33;0.60;;;14.30;91.60;;;;;;5054817;28;20625;-85
2023/04/16 10:06:19;;;;;;;0.93;0.73;;;14.20;77.90;;;;;;5055076;28;20516;-85
2023/04/16 10:09:07;;;;;;;0.10;0.10;;;14.20;56.60;;;;;;5055339;28;20374;-85
2023/04/16 10:11:33;;;;;;;2.20;1.33;;;14.10;58.10;;;;;;5055340;28;20114;-84
2023/04/16 10:13:59;;;;;;;0.52;0.30;;;14.10;59.60;;;;;;5055125;28;20053;-84
2023/04/16 10:16:26;;;;;;;2.70;0.47;;;14.00;49.80;;;;;;5038946;28;20044;-85
2023/04/16 10:18:53;;;;;;;0.80;0.68;;;14.00;60.40;;;;;;5055277;28;20052;-84
2023/04/16 10:21:18;;;;;;;0.52;0.13;;;14.00;56.40;;;;;;5055132;28;20059;-85
2023/04/16 10:23:45;;;;;;;0.47;0.47;;;14.10;73.50;;;;;;5040755;28;20088;-85
2023/04/16 10:26:18;;;;;;;0.40;0.20;;;14.10;61.20;;;;;;5058833;28;20079;-85
2023/04/16 10:28:44;;;;;;;0.52;0.52;;;14.20;58.00;;;;;;5059259;28;20553;-84
2023/04/16 10:31:11;;;;;;;0.15;0.15;;;14.30;46.90;;;;;;5058484;28;20074;-84
2023/04/16 10:33:43;;;;;;;0.45;0.45;;;14.30;54.30;;;;;;5042032;28;20055;-84
2023/04/16 10:36:11;;;;;;;0.20;0.20;;;14.30;57.60;;;;;;5058598;28;20041;-84
2023/04/16 10:38:39;;;;;;;0.17;0.17;;;14.30;42.40;;;;;;5074964;28;20488;-85
2023/04/16 10:41:07;;;;;;;0.10;0.10;;;14.50;43.50;;;;;;5058311;28;20456;-84
2023/04/16 10:43:40;;;;;;;2.08;1.77;;;14.50;44.60;;;;;;5058964;28;20050;-85
2023/04/16 10:46:34;;;;;;;1.55;0.20;;;14.60;40.40;;;;;;5058570;28;20102;-86
2023/04/16 10:49:19;;;;;;;0.22;0.22;;;14.50;39.50;;;;;;5059139;28;20059;-85
2023/04/16 10:51:56;;;;;;;1.30;1.17;;;14.50;34.80;;;;;;5058697;28;20052;-85
2023/04/16 10:54:29;;;;;;;0.10;0.10;;;14.70;41.60;;;;;;5058795;28;20165;-85
2023/04/16 10:57:09;;;;;;;1.08;0.65;;;14.90;38.30;;;;;;5057981;28;20032;-86
2023/04/16 10:59:36;;;;;;;2.30;0.45;;;15.00;39.00;;;;;;5057850;28;20154;-85
2023/04/16 11:02:08;;;;;;;0.63;0.47;;;15.20;32.10;;;;;;5057218;28;20094;-85
2023/04/16 11:04:38;;;;;;;0.47;0.47;;;15.30;20.60;;;;;;5057591;28;20040;-86
2023/04/16 11:07:10;;;;;;;0.40;0.10;;;15.60;30.00;;;;;;5049999;28;20044;-85
2023/04/16 11:09:49;;;;;;;0.20;0.20;;;15.80;19.60;;;;;;5058007;28;20051;-86
2023/04/16 11:12:23;;;;;;;1.65;0.70;;;16.10;20.00;;;;;;5058116;28;20095;-85
2023/04/16 11:15:00;;;;;;;0.50;0.50;;;16.30;60.20;;;;;;5058478;28;20147;-86
2023/04/16 11:17:40;;;;;;;0.22;0.22;;;16.30;23.60;;;;;;5071937;28;20153;-85
2023/04/16 11:20:16;;;;;;;0.00;0.00;;;16.30;1.00;;;;;;5058165;28;20053;-84
2023/04/16 11:22:44;;;;;;;0.38;0.20;;;16.30;1.00;;;;;;5056972;28;20511;-86
2023/04/16 11:25:10;;;;;;;1.33;1.02;;;16.40;1.00;;;;;;5074607;28;20045;-86
2023/04/16 11:27:35;;;;;;;0.20;0.20;;;16.40;1.00;;;;;;5040939;28;20492;-86
2023/04/16 11:30:03;;;;;;;1.13;1.02;;;16.40;3.40;;;;;;5052862;28;20055;-86
2023/04/16 11:32:33;;;;;;;0.10;0.10;;;16.40;1.00;;;;;;5054071;28;20055;-86
2023/04/16 11:35:04;;;;;;;0.05;0.05;;;16.40;1.00;;;;;;5041073;28;20056;-86
2023/04/16 11:37:37;;;;;;;0.43;0.43;;;16.30;1.00;;;;;;5057044;28;20079;-86
2023/04/16 11:40:08;;;;;;;0.93;0.93;;;16.20;1.00;;;;;;5074459;28;20103;-85
2023/04/16 11:42:39;;;;;;;0.10;0.10;;;15.90;1.00;;;;;;5057473;28;20045;-86
2023/04/16 11:45:06;;;;;;;0.10;0.10;;;15.70;1.00;;;;;;5056710;28;20049;-86
2023/04/16 11:47:50;;;;;;;0.28;0.25;;;15.50;1.00;;;;;;5057217;28;20082;-86
2023/04/16 11:50:21;;;;;;;1.20;0.70;;;15.50;1.00;;;;;;5074022;28;20484;-86
2023/04/16 11:52:49;;;;;;;0.40;0.32;;;15.50;8.00;;;;;;5056812;28;20334;-87
2023/04/16 11:55:15;;;;;;;0.20;0.20;;;15.40;1.00;;;;;;5074077;28;20056;-85
2023/04/16 11:57:40;;;;;;;2.42;0.63;;;15.40;9.90;;;;;;5057048;28;20037;-85
2023/04/16 12:00:12;;;;;;;1.48;1.05;;;15.30;15.60;;;;;;5056551;28;20139;-85
2023/04/16 12:02:40;;;;;;;0.70;0.40;;;15.20;26.20;;;;;;5057500;28;20404;-85
2023/04/16 12:05:25;;;;;;;0.13;0.13;;;15.10;7.00;;;;;;5057332;28;20049;-85
2023/04/16 12:07:51;;;;;;;2.25;0.20;;;15.20;11.00;;;;;;5073419;28;20488;-85
2023/04/16 12:10:17;;;;;;;0.95;0.43;;;15.10;9.00;;;;;;5024111;28;20059;-85
2023/04/16 12:12:42;;;;;;;0.45;0.22;;;15.20;22.30;;;;;;5056862;28;20040;-85
2023/04/16 12:15:08;;;;;;;0.30;0.30;;;15.20;23.60;;;;;;5057077;28;20396;-84
2023/04/16 12:17:35;;;;;;;1.27;0.55;;;15.20;56.90;;;;;;5056968;28;20392;-85
2023/04/16 12:20:04;;;;;;;0.10;0.10;;;15.20;16.80;;;;;;5056873;28;20044;-85
2023/04/16 12:22:35;;;;;;;0.40;0.40;;;15.20;17.80;;;;;;5056883;28;20048;-85
2023/04/16 12:25:12;;;;;;;0.73;0.50;;;15.20;29.40;;;;;;5055878;28;20523;-85
2023/04/16 12:27:47;;;;;;;0.90;0.20;;;15.30;15.00;;;;;;5056321;28;20480;-85
2023/04/16 12:30:14;;;;;;;0.10;0.10;;;15.20;15.80;;;;;;5056794;28;20131;-85
2023/04/16 12:32:42;;;;;;;1.15;0.30;;;15.30;31.90;;;;;;5056452;28;20455;-85
2023/04/16 12:35:09;;;;;;;0.45;0.08;;;15.30;25.80;;;;;;5056470;28;20037;-85
2023/04/16 12:37:36;;;;;;;0.30;0.30;;;15.30;24.60;;;;;;5055975;28;20055;-85
2023/04/16 12:40:03;;;;;;;0.35;0.30;;;15.40;43.10;;;;;;5039431;28;20079;-85
2023/04/16 12:42:34;;;;;;;0.20;0.10;;;15.50;14.50;;;;;;5073164;28;20131;-85
2023/04/16 12:45:02;;;;;;;0.38;0.38;;;15.50;14.80;;;;;;5040292;28;20052;-85
2023/04/16 12:47:30;;;;;;;0.05;0.05;;;15.80;15.50;;;;;;5055921;28;20040;-86
2023/04/16 12:49:56;;;;;;;1.35;0.30;;;16.00;14.10;;;;;;5056307;28;20044;-83
2023/04/16 12:52:23;;;;;;;0.10;0.10;;;16.00;1.00;;;;;;5056072;28;20083;-84
2023/04/16 12:54:49;;;;;;;0.20;0.20;;;16.10;1.00;;;;;;5056482;28;20075;-86